sensor_id;sensor_type;location;lat;lon;timestamp;temperature;humidity
57709;SHT35;42558;52.388;13.390;2022-07-24T00:01:25;14.77;72.56
57709;SHT35;42558;52.388;13.390;2022-07-24T00:03:52;14.70;72.93
57709;SHT35;42558;52.388;13.390;2022-07-24T00:06:20;14.77;72.80
57709;SHT35;42558;52.388;13.390;2022-07-24T00:08:47;14.81;72.49
57709;SHT35;42558;52.388;13.390;2022-07-24T00:11:15;14.83;72.40
57709;SHT35;42558;52.388;13.390;2022-07-24T00:13:43;14.81;72.50
57709;SHT35;42558;52.388;13.390;2022-07-24T00:16:10;14.76;72.71
57709;SHT35;42558;52.388;13.390;2022-07-24T00:18:37;14.71;72.66
57709;SHT35;42558;52.388;13.390;2022-07-24T00:21:04;14.73;72.48
57709;SHT35;42558;52.388;13.390;2022-07-24T00:23:33;14.69;72.61
57709;SHT35;42558;52.388;13.390;2022-07-24T00:26:00;14.59;73.00
57709;SHT35;42558;52.388;13.390;2022-07-24T00:28:27;14.43;73.41
57709;SHT35;42558;52.388;13.390;2022-07-24T00:30:55;14.38;73.55
57709;SHT35;42558;52.388;13.390;2022-07-24T00:33:23;14.39;73.36
57709;SHT35;42558;52.388;13.390;2022-07-24T00:35:50;14.38;73.31
57709;SHT35;42558;52.388;13.390;2022-07-24T00:38:17;14.35;73.22
57709;SHT35;42558;52.388;13.390;2022-07-24T00:40:44;14.25;73.69
57709;SHT35;42558;52.388;13.390;2022-07-24T00:43:11;14.23;73.78
57709;SHT35;42558;52.388;13.390;2022-07-24T00:45:39;14.23;73.74
57709;SHT35;42558;52.388;13.390;2022-07-24T00:48:07;14.24;73.69
57709;SHT35;42558;52.388;13.390;2022-07-24T00:50:35;14.23;73.42
57709;SHT35;42558;52.388;13.390;2022-07-24T00:53:03;14.13;73.70
57709;SHT35;42558;52.388;13.390;2022-07-24T00:55:32;14.15;73.54
57709;SHT35;42558;52.388;13.390;2022-07-24T00:58:00;14.05;73.69
57709;SHT35;42558;52.388;13.390;2022-07-24T01:00:27;13.89;74.25
57709;SHT35;42558;52.388;13.390;2022-07-24T01:02:54;13.94;74.11
57709;SHT35;42558;52.388;13.390;2022-07-24T01:05:22;13.96;74.03
57709;SHT35;42558;52.388;13.390;2022-07-24T01:07:49;13.95;74.22
57709;SHT35;42558;52.388;13.390;2022-07-24T01:10:16;14.01;73.79
57709;SHT35;42558;52.388;13.390;2022-07-24T01:12:43;14.04;73.72
57709;SHT35;42558;52.388;13.390;2022-07-24T01:15:10;14.04;73.88
57709;SHT35;42558;52.388;13.390;2022-07-24T01:17:39;13.99;74.04
57709;SHT35;42558;52.388;13.390;2022-07-24T01:20:08;13.98;74.08
57709;SHT35;42558;52.388;13.390;2022-07-24T01:22:36;14.01;73.85
57709;SHT35;42558;52.388;13.390;2022-07-24T01:25:03;14.04;73.82
57709;SHT35;42558;52.388;13.390;2022-07-24T01:27:31;13.99;74.28
57709;SHT35;42558;52.388;13.390;2022-07-24T01:29:58;13.90;74.49
57709;SHT35;42558;52.388;13.390;2022-07-24T01:32:25;13.89;74.57
57709;SHT35;42558;52.388;13.390;2022-07-24T01:34:51;14.00;73.73
57709;SHT35;42558;52.388;13.390;2022-07-24T01:37:18;14.07;73.50
57709;SHT35;42558;52.388;13.390;2022-07-24T01:39:45;13.95;73.87
57709;SHT35;42558;52.388;13.390;2022-07-24T01:42:12;13.72;74.63
57709;SHT35;42558;52.388;13.390;2022-07-24T01:44:40;13.49;75.52
57709;SHT35;42558;52.388;13.390;2022-07-24T01:47:07;13.31;76.26
57709;SHT35;42558;52.388;13.390;2022-07-24T01:49:34;13.25;76.39
57709;SHT35;42558;52.388;13.390;2022-07-24T01:52:01;13.31;76.30
57709;SHT35;42558;52.388;13.390;2022-07-24T01:54:29;13.35;75.93
57709;SHT35;42558;52.388;13.390;2022-07-24T01:56:56;13.39;75.60
57709;SHT35;42558;52.388;13.390;2022-07-24T01:59:23;13.42;75.29
57709;SHT35;42558;52.388;13.390;2022-07-24T02:01:51;13.40;75.27
57709;SHT35;42558;52.388;13.390;2022-07-24T02:04:20;13.33;75.58
57709;SHT35;42558;52.388;13.390;2022-07-24T02:06:47;13.25;76.07
57709;SHT35;42558;52.388;13.390;2022-07-24T02:09:14;13.29;75.98
57709;SHT35;42558;52.388;13.390;2022-07-24T02:11:40;13.35;75.58
57709;SHT35;42558;52.388;13.390;2022-07-24T02:14:07;13.37;75.29
57709;SHT35;42558;52.388;13.390;2022-07-24T02:16:34;13.14;76.14
57709;SHT35;42558;52.388;13.390;2022-07-24T02:19:01;12.93;77.16
57709;SHT35;42558;52.388;13.390;2022-07-24T02:21:29;12.90;77.39
57709;SHT35;42558;52.388;13.390;2022-07-24T02:23:56;12.94;76.99
57709;SHT35;42558;52.388;13.390;2022-07-24T02:26:23;12.96;76.61
57709;SHT35;42558;52.388;13.390;2022-07-24T02:28:50;12.97;76.31
57709;SHT35;42558;52.388;13.390;2022-07-24T02:31:17;13.01;75.92
57709;SHT35;42558;52.388;13.390;2022-07-24T02:33:44;13.06;75.59
57709;SHT35;42558;52.388;13.390;2022-07-24T02:36:11;13.07;75.54
57709;SHT35;42558;52.388;13.390;2022-07-24T02:38:38;12.99;75.90
57709;SHT35;42558;52.388;13.390;2022-07-24T02:41:05;12.95;76.09
57709;SHT35;42558;52.388;13.390;2022-07-24T02:43:32;12.95;76.04
57709;SHT35;42558;52.388;13.390;2022-07-24T02:45:59;12.89;76.23
57709;SHT35;42558;52.388;13.390;2022-07-24T02:48:27;12.82;76.37
57709;SHT35;42558;52.388;13.390;2022-07-24T02:50:54;12.76;76.35
57709;SHT35;42558;52.388;13.390;2022-07-24T02:53:21;12.64;76.68
57709;SHT35;42558;52.388;13.390;2022-07-24T02:55:48;12.55;77.01
57709;SHT35;42558;52.388;13.390;2022-07-24T02:58:15;12.61;77.20
57709;SHT35;42558;52.388;13.390;2022-07-24T03:00:42;12.75;76.38
57709;SHT35;42558;52.388;13.390;2022-07-24T03:03:09;12.75;76.32
57709;SHT35;42558;52.388;13.390;2022-07-24T03:05:36;12.68;76.57
57709;SHT35;42558;52.388;13.390;2022-07-24T03:08:03;12.60;76.84
57709;SHT35;42558;52.388;13.390;2022-07-24T03:10:31;12.62;76.86
57709;SHT35;42558;52.388;13.390;2022-07-24T03:12:58;12.63;76.93
57709;SHT35;42558;52.388;13.390;2022-07-24T03:15:24;12.63;76.65
57709;SHT35;42558;52.388;13.390;2022-07-24T03:17:52;12.61;76.78
57709;SHT35;42558;52.388;13.390;2022-07-24T03:20:24;12.50;77.21
57709;SHT35;42558;52.388;13.390;2022-07-24T03:22:53;12.45;77.75
57709;SHT35;42558;52.388;13.390;2022-07-24T03:25:20;12.46;77.67
57709;SHT35;42558;52.388;13.390;2022-07-24T03:27:49;12.49;77.27
57709;SHT35;42558;52.388;13.390;2022-07-24T03:30:16;12.53;77.00
57709;SHT35;42558;52.388;13.390;2022-07-24T03:32:45;12.59;76.63
57709;SHT35;42558;52.388;13.390;2022-07-24T03:35:15;12.56;76.95
57709;SHT35;42558;52.388;13.390;2022-07-24T03:37:42;12.55;77.13
57709;SHT35;42558;52.388;13.390;2022-07-24T03:40:09;12.53;77.58
57709;SHT35;42558;52.388;13.390;2022-07-24T03:42:37;12.61;77.28
57709;SHT35;42558;52.388;13.390;2022-07-24T03:45:04;12.67;76.65
57709;SHT35;42558;52.388;13.390;2022-07-24T03:47:32;12.72;76.62
57709;SHT35;42558;52.388;13.390;2022-07-24T03:49:59;12.69;76.83
57709;SHT35;42558;52.388;13.390;2022-07-24T03:52:26;12.68;76.85
57709;SHT35;42558;52.388;13.390;2022-07-24T03:54:53;12.66;76.80
57709;SHT35;42558;52.388;13.390;2022-07-24T03:57:21;12.62;76.96
57709;SHT35;42558;52.388;13.390;2022-07-24T03:59:48;12.64;76.91
57709;SHT35;42558;52.388;13.390;2022-07-24T04:02:16;12.65;77.02
57709;SHT35;42558;52.388;13.390;2022-07-24T04:04:43;12.67;77.08
57709;SHT35;42558;52.388;13.390;2022-07-24T04:07:10;12.68;77.22
57709;SHT35;42558;52.388;13.390;2022-07-24T04:09:37;12.68;77.27
57709;SHT35;42558;52.388;13.390;2022-07-24T04:12:04;12.73;77.03
57709;SHT35;42558;52.388;13.390;2022-07-24T04:14:33;12.72;77.03
57709;SHT35;42558;52.388;13.390;2022-07-24T04:17:00;12.73;77.71
57709;SHT35;42558;52.388;13.390;2022-07-24T04:19:26;12.73;78.04
57709;SHT35;42558;52.388;13.390;2022-07-24T04:21:53;12.77;77.99
57709;SHT35;42558;52.388;13.390;2022-07-24T04:24:20;12.80;77.70
57709;SHT35;42558;52.388;13.390;2022-07-24T04:26:47;12.82;77.52
57709;SHT35;42558;52.388;13.390;2022-07-24T04:29:14;12.75;78.28
57709;SHT35;42558;52.388;13.390;2022-07-24T04:31:47;12.74;78.32
57709;SHT35;42558;52.388;13.390;2022-07-24T04:34:14;12.75;78.54
57709;SHT35;42558;52.388;13.390;2022-07-24T04:36:41;12.81;78.51
57709;SHT35;42558;52.388;13.390;2022-07-24T04:39:08;12.84;78.58
57709;SHT35;42558;52.388;13.390;2022-07-24T04:41:36;12.89;78.50
57709;SHT35;42558;52.388;13.390;2022-07-24T04:44:02;13.01;78.52
57709;SHT35;42558;52.388;13.390;2022-07-24T04:46:30;13.14;77.95
57709;SHT35;42558;52.388;13.390;2022-07-24T04:48:57;13.19;78.38
57709;SHT35;42558;52.388;13.390;2022-07-24T04:51:24;13.14;79.27
57709;SHT35;42558;52.388;13.390;2022-07-24T04:53:51;13.09;79.53
57709;SHT35;42558;52.388;13.390;2022-07-24T04:56:21;13.16;79.13
57709;SHT35;42558;52.388;13.390;2022-07-24T04:58:48;13.22;79.23
57709;SHT35;42558;52.388;13.390;2022-07-24T05:01:15;13.34;78.72
57709;SHT35;42558;52.388;13.390;2022-07-24T05:03:42;13.46;78.37
57709;SHT35;42558;52.388;13.390;2022-07-24T05:06:10;13.58;78.10
57709;SHT35;42558;52.388;13.390;2022-07-24T05:08:37;13.67;77.73
57709;SHT35;42558;52.388;13.390;2022-07-24T05:11:04;13.83;77.16
57709;SHT35;42558;52.388;13.390;2022-07-24T05:13:31;13.94;77.45
57709;SHT35;42558;52.388;13.390;2022-07-24T05:15:57;13.99;78.39
57709;SHT35;42558;52.388;13.390;2022-07-24T05:18:24;14.07;78.76
57709;SHT35;42558;52.388;13.390;2022-07-24T05:20:51;14.17;78.47
57709;SHT35;42558;52.388;13.390;2022-07-24T05:23:18;14.28;78.47
57709;SHT35;42558;52.388;13.390;2022-07-24T05:25:45;14.35;78.54
57709;SHT35;42558;52.388;13.390;2022-07-24T05:28:15;14.53;78.59
57709;SHT35;42558;52.388;13.390;2022-07-24T05:30:42;14.66;78.08
57709;SHT35;42558;52.388;13.390;2022-07-24T05:33:09;14.81;77.88
57709;SHT35;42558;52.388;13.390;2022-07-24T05:35:36;14.99;77.73
57709;SHT35;42558;52.388;13.390;2022-07-24T05:38:03;15.15;77.46
57709;SHT35;42558;52.388;13.390;2022-07-24T05:40:30;15.34;76.89
57709;SHT35;42558;52.388;13.390;2022-07-24T05:42:57;15.50;76.34
57709;SHT35;42558;52.388;13.390;2022-07-24T05:45:24;15.65;75.96
57709;SHT35;42558;52.388;13.390;2022-07-24T05:47:51;15.82;75.12
57709;SHT35;42558;52.388;13.390;2022-07-24T05:50:18;16.00;74.53
57709;SHT35;42558;52.388;13.390;2022-07-24T05:52:44;16.21;73.71
57709;SHT35;42558;52.388;13.390;2022-07-24T05:55:11;16.33;72.90
57709;SHT35;42558;52.388;13.390;2022-07-24T05:57:42;16.64;73.26
57709;SHT35;42558;52.388;13.390;2022-07-24T06:00:10;16.86;71.23
57709;SHT35;42558;52.388;13.390;2022-07-24T06:02:43;17.04;70.40
57709;SHT35;42558;52.388;13.390;2022-07-24T06:05:12;17.11;70.03
57709;SHT35;42558;52.388;13.390;2022-07-24T06:07:41;17.16;69.58
57709;SHT35;42558;52.388;13.390;2022-07-24T06:10:09;17.33;69.08
57709;SHT35;42558;52.388;13.390;2022-07-24T06:12:40;17.58;69.00
57709;SHT35;42558;52.388;13.390;2022-07-24T06:15:08;17.73;67.45
57709;SHT35;42558;52.388;13.390;2022-07-24T06:17:35;18.00;67.96
57709;SHT35;42558;52.388;13.390;2022-07-24T06:20:02;18.20;66.62
57709;SHT35;42558;52.388;13.390;2022-07-24T06:22:31;18.38;65.82
57709;SHT35;42558;52.388;13.390;2022-07-24T06:24:58;18.61;65.66
57709;SHT35;42558;52.388;13.390;2022-07-24T06:27:25;18.56;63.23
57709;SHT35;42558;52.388;13.390;2022-07-24T06:29:52;18.58;62.60
57709;SHT35;42558;52.388;13.390;2022-07-24T06:32:22;18.73;63.17
57709;SHT35;42558;52.388;13.390;2022-07-24T06:34:49;18.88;61.01
57709;SHT35;42558;52.388;13.390;2022-07-24T06:37:17;19.03;59.92
57709;SHT35;42558;52.388;13.390;2022-07-24T06:39:46;19.18;59.42
57709;SHT35;42558;52.388;13.390;2022-07-24T06:42:13;19.38;59.18
57709;SHT35;42558;52.388;13.390;2022-07-24T06:44:42;19.47;58.82
57709;SHT35;42558;52.388;13.390;2022-07-24T06:47:08;19.57;59.11
57709;SHT35;42558;52.388;13.390;2022-07-24T06:49:35;19.80;58.92
57709;SHT35;42558;52.388;13.390;2022-07-24T06:52:02;20.10;57.53
57709;SHT35;42558;52.388;13.390;2022-07-24T06:54:30;20.28;56.95
57709;SHT35;42558;52.388;13.390;2022-07-24T06:56:56;20.37;56.80
57709;SHT35;42558;52.388;13.390;2022-07-24T06:59:23;20.35;56.09
57709;SHT35;42558;52.388;13.390;2022-07-24T07:01:50;20.33;56.45
57709;SHT35;42558;52.388;13.390;2022-07-24T07:04:18;20.39;55.88
57709;SHT35;42558;52.388;13.390;2022-07-24T07:06:45;20.34;56.02
57709;SHT35;42558;52.388;13.390;2022-07-24T07:09:12;20.13;56.46
57709;SHT35;42558;52.388;13.390;2022-07-24T07:11:39;20.20;56.41
57709;SHT35;42558;52.388;13.390;2022-07-24T07:14:06;20.31;55.67
57709;SHT35;42558;52.388;13.390;2022-07-24T07:16:35;20.35;56.59
57709;SHT35;42558;52.388;13.390;2022-07-24T07:19:02;20.43;55.08
57709;SHT35;42558;52.388;13.390;2022-07-24T07:24:34;20.83;55.42
57709;SHT35;42558;52.388;13.390;2022-07-24T07:27:01;21.07;54.94
57709;SHT35;42558;52.388;13.390;2022-07-24T08:10:45;22.30;50.77
57709;SHT35;42558;52.388;13.390;2022-07-24T08:13:12;22.22;51.98
57709;SHT35;42558;52.388;13.390;2022-07-24T08:15:41;22.34;50.03
57709;SHT35;42558;52.388;13.390;2022-07-24T08:18:08;22.04;51.74
57709;SHT35;42558;52.388;13.390;2022-07-24T08:20:35;22.64;50.94
57709;SHT35;42558;52.388;13.390;2022-07-24T08:23:01;22.56;50.48
57709;SHT35;42558;52.388;13.390;2022-07-24T08:25:28;22.68;51.36
57709;SHT35;42558;52.388;13.390;2022-07-24T08:27:55;22.55;51.67
57709;SHT35;42558;52.388;13.390;2022-07-24T08:30:22;22.73;50.35
57709;SHT35;42558;52.388;13.390;2022-07-24T08:32:52;23.09;49.85
57709;SHT35;42558;52.388;13.390;2022-07-24T08:35:20;23.28;49.71
57709;SHT35;42558;52.388;13.390;2022-07-24T08:37:47;23.30;49.31
57709;SHT35;42558;52.388;13.390;2022-07-24T08:40:14;23.14;50.20
57709;SHT35;42558;52.388;13.390;2022-07-24T08:42:41;23.61;48.63
57709;SHT35;42558;52.388;13.390;2022-07-24T08:45:08;23.50;48.12
57709;SHT35;42558;52.388;13.390;2022-07-24T08:47:37;23.36;48.98
57709;SHT35;42558;52.388;13.390;2022-07-24T08:50:07;23.25;49.19
57709;SHT35;42558;52.388;13.390;2022-07-24T08:52:36;23.46;49.77
57709;SHT35;42558;52.388;13.390;2022-07-24T08:55:10;24.00;47.66
57709;SHT35;42558;52.388;13.390;2022-07-24T08:57:38;23.92;46.35
57709;SHT35;42558;52.388;13.390;2022-07-24T09:00:05;24.05;46.65
57709;SHT35;42558;52.388;13.390;2022-07-24T09:02:37;23.84;45.50
57709;SHT35;42558;52.388;13.390;2022-07-24T09:05:04;23.83;46.07
57709;SHT35;42558;52.388;13.390;2022-07-24T09:07:32;23.84;48.12
57709;SHT35;42558;52.388;13.390;2022-07-24T09:10:01;24.11;47.09
57709;SHT35;42558;52.388;13.390;2022-07-24T09:12:43;24.42;45.26
57709;SHT35;42558;52.388;13.390;2022-07-24T09:17:51;23.88;46.76
57709;SHT35;42558;52.388;13.390;2022-07-24T09:20:25;24.26;46.16
57709;SHT35;42558;52.388;13.390;2022-07-24T09:22:57;24.68;44.29
57709;SHT35;42558;52.388;13.390;2022-07-24T09:25:32;24.62;43.93
57709;SHT35;42558;52.388;13.390;2022-07-24T09:28:01;24.32;43.15
57709;SHT35;42558;52.388;13.390;2022-07-24T09:33:05;25.00;43.53
57709;SHT35;42558;52.388;13.390;2022-07-24T09:35:40;25.14;43.82
57709;SHT35;42558;52.388;13.390;2022-07-24T09:38:17;24.62;42.29
57709;SHT35;42558;52.388;13.390;2022-07-24T09:40:52;24.51;44.43
57709;SHT35;42558;52.388;13.390;2022-07-24T09:46:06;24.38;45.81
57709;SHT35;42558;52.388;13.390;2022-07-24T09:48:39;24.27;45.17
57709;SHT35;42558;52.388;13.390;2022-07-24T09:51:19;24.61;44.49
57709;SHT35;42558;52.388;13.390;2022-07-24T09:53:52;24.67;43.85
57709;SHT35;42558;52.388;13.390;2022-07-24T09:56:22;24.66;43.96
57709;SHT35;42558;52.388;13.390;2022-07-24T09:58:52;25.08;44.91
57709;SHT35;42558;52.388;13.390;2022-07-24T10:01:23;25.25;45.17
57709;SHT35;42558;52.388;13.390;2022-07-24T10:03:54;25.25;44.72
57709;SHT35;42558;52.388;13.390;2022-07-24T10:06:24;25.34;43.75
57709;SHT35;42558;52.388;13.390;2022-07-24T10:08:53;24.68;43.09
57709;SHT35;42558;52.388;13.390;2022-07-24T10:11:22;23.82;45.80
57709;SHT35;42558;52.388;13.390;2022-07-24T10:13:49;24.15;44.23
57709;SHT35;42558;52.388;13.390;2022-07-24T10:16:30;24.78;45.13
57709;SHT35;42558;52.388;13.390;2022-07-24T10:18:59;25.11;41.97
57709;SHT35;42558;52.388;13.390;2022-07-24T10:21:32;25.17;42.79
57709;SHT35;42558;52.388;13.390;2022-07-24T10:29:18;25.11;43.41
57709;SHT35;42558;52.388;13.390;2022-07-24T10:31:51;25.40;42.02
57709;SHT35;42558;52.388;13.390;2022-07-24T10:40:13;25.53;41.47
57709;SHT35;42558;52.388;13.390;2022-07-24T10:59:10;25.97;39.65
57709;SHT35;42558;52.388;13.390;2022-07-24T11:01:40;26.02;40.59
57709;SHT35;42558;52.388;13.390;2022-07-24T11:09:23;26.07;40.01
57709;SHT35;42558;52.388;13.390;2022-07-24T11:14:24;26.00;40.42
57709;SHT35;42558;52.388;13.390;2022-07-24T11:20:10;26.20;39.47
57709;SHT35;42558;52.388;13.390;2022-07-24T11:25:25;26.20;40.02
57709;SHT35;42558;52.388;13.390;2022-07-24T11:30:33;26.13;40.13
57709;SHT35;42558;52.388;13.390;2022-07-24T11:33:12;26.25;39.93
57709;SHT35;42558;52.388;13.390;2022-07-24T11:35:48;26.25;40.12
57709;SHT35;42558;52.388;13.390;2022-07-24T11:38:15;26.22;40.26
57709;SHT35;42558;52.388;13.390;2022-07-24T11:40:43;26.44;39.86
57709;SHT35;42558;52.388;13.390;2022-07-24T11:43:09;26.28;39.11
57709;SHT35;42558;52.388;13.390;2022-07-24T11:45:38;26.00;40.10
57709;SHT35;42558;52.388;13.390;2022-07-24T11:48:06;26.18;41.02
57709;SHT35;42558;52.388;13.390;2022-07-24T11:50:44;26.34;39.65
57709;SHT35;42558;52.388;13.390;2022-07-24T11:53:11;26.18;40.21
57709;SHT35;42558;52.388;13.390;2022-07-24T11:55:38;26.28;39.68
57709;SHT35;42558;52.388;13.390;2022-07-24T11:58:05;26.42;39.57
57709;SHT35;42558;52.388;13.390;2022-07-24T12:00:51;26.34;39.79
57709;SHT35;42558;52.388;13.390;2022-07-24T12:03:18;26.07;39.25
57709;SHT35;42558;52.388;13.390;2022-07-24T12:05:46;25.76;40.30
57709;SHT35;42558;52.388;13.390;2022-07-24T12:08:20;25.81;40.37
57709;SHT35;42558;52.388;13.390;2022-07-24T12:10:56;26.07;39.89
57709;SHT35;42558;52.388;13.390;2022-07-24T12:13:27;26.21;39.01
57709;SHT35;42558;52.388;13.390;2022-07-24T12:15:57;26.36;38.71
57709;SHT35;42558;52.388;13.390;2022-07-24T12:18:24;26.31;37.33
57709;SHT35;42558;52.388;13.390;2022-07-24T12:21:00;26.11;37.96
57709;SHT35;42558;52.388;13.390;2022-07-24T12:23:29;26.29;38.15
57709;SHT35;42558;52.388;13.390;2022-07-24T12:25:56;26.41;38.20
57709;SHT35;42558;52.388;13.390;2022-07-24T12:28:25;26.27;38.10
57709;SHT35;42558;52.388;13.390;2022-07-24T12:30:53;26.28;40.01
57709;SHT35;42558;52.388;13.390;2022-07-24T12:33:22;26.59;38.78
57709;SHT35;42558;52.388;13.390;2022-07-24T12:38:28;26.34;38.34
57709;SHT35;42558;52.388;13.390;2022-07-24T12:41:03;26.45;38.05
57709;SHT35;42558;52.388;13.390;2022-07-24T12:46:28;26.43;37.76
57709;SHT35;42558;52.388;13.390;2022-07-24T12:54:18;26.64;36.87
57709;SHT35;42558;52.388;13.390;2022-07-24T12:56:57;26.73;36.47
57709;SHT35;42558;52.388;13.390;2022-07-24T12:59:30;26.66;36.96
57709;SHT35;42558;52.388;13.390;2022-07-24T13:04:33;26.97;37.53
57709;SHT35;42558;52.388;13.390;2022-07-24T13:07:11;26.90;36.68
57709;SHT35;42558;52.388;13.390;2022-07-24T13:09:39;26.83;37.00
57709;SHT35;42558;52.388;13.390;2022-07-24T13:12:07;26.85;37.22
57709;SHT35;42558;52.388;13.390;2022-07-24T13:14:39;26.97;37.11
57709;SHT35;42558;52.388;13.390;2022-07-24T13:17:14;26.93;36.66
57709;SHT35;42558;52.388;13.390;2022-07-24T13:19:44;26.96;36.70
57709;SHT35;42558;52.388;13.390;2022-07-24T13:22:15;26.95;37.25
57709;SHT35;42558;52.388;13.390;2022-07-24T13:24:43;26.96;36.62
57709;SHT35;42558;52.388;13.390;2022-07-24T13:27:11;26.93;36.67
57709;SHT35;42558;52.388;13.390;2022-07-24T13:29:41;26.89;37.04
57709;SHT35;42558;52.388;13.390;2022-07-24T13:32:09;26.95;37.48
57709;SHT35;42558;52.388;13.390;2022-07-24T13:34:36;27.07;39.57
57709;SHT35;42558;52.388;13.390;2022-07-24T13:37:04;27.28;39.38
57709;SHT35;42558;52.388;13.390;2022-07-24T13:39:33;27.31;38.23
57709;SHT35;42558;52.388;13.390;2022-07-24T13:42:03;27.12;37.43
57709;SHT35;42558;52.388;13.390;2022-07-24T13:44:32;26.51;38.27
57709;SHT35;42558;52.388;13.390;2022-07-24T13:46:59;26.52;39.81
57709;SHT35;42558;52.388;13.390;2022-07-24T13:49:27;26.84;38.62
57709;SHT35;42558;52.388;13.390;2022-07-24T13:51:54;26.91;37.79
57709;SHT35;42558;52.388;13.390;2022-07-24T13:54:22;27.02;39.00
57709;SHT35;42558;52.388;13.390;2022-07-24T13:56:49;27.07;38.00
57709;SHT35;42558;52.388;13.390;2022-07-24T13:59:16;27.21;38.31
57709;SHT35;42558;52.388;13.390;2022-07-24T14:01:43;27.27;37.31
57709;SHT35;42558;52.388;13.390;2022-07-24T14:04:11;27.19;37.46
57709;SHT35;42558;52.388;13.390;2022-07-24T14:06:52;27.15;37.92
57709;SHT35;42558;52.388;13.390;2022-07-24T14:09:20;27.16;37.57
57709;SHT35;42558;52.388;13.390;2022-07-24T14:11:48;27.19;37.67
57709;SHT35;42558;52.388;13.390;2022-07-24T14:14:17;26.96;37.07
57709;SHT35;42558;52.388;13.390;2022-07-24T14:16:44;26.83;38.84
57709;SHT35;42558;52.388;13.390;2022-07-24T14:19:12;27.23;38.76
57709;SHT35;42558;52.388;13.390;2022-07-24T14:21:38;27.16;37.12
57709;SHT35;42558;52.388;13.390;2022-07-24T14:24:06;27.23;38.67
57709;SHT35;42558;52.388;13.390;2022-07-24T14:26:41;27.40;37.38
57709;SHT35;42558;52.388;13.390;2022-07-24T14:29:10;27.30;37.65
57709;SHT35;42558;52.388;13.390;2022-07-24T14:31:38;27.40;37.37
57709;SHT35;42558;52.388;13.390;2022-07-24T14:34:06;27.50;37.98
57709;SHT35;42558;52.388;13.390;2022-07-24T14:36:34;27.74;37.12
57709;SHT35;42558;52.388;13.390;2022-07-24T14:39:02;27.50;37.03
57709;SHT35;42558;52.388;13.390;2022-07-24T14:41:29;27.64;37.10
57709;SHT35;42558;52.388;13.390;2022-07-24T14:43:56;27.83;37.00
57709;SHT35;42558;52.388;13.390;2022-07-24T14:46:31;27.36;36.70
57709;SHT35;42558;52.388;13.390;2022-07-24T14:48:58;27.62;37.58
57709;SHT35;42558;52.388;13.390;2022-07-24T14:51:25;27.89;36.98
57709;SHT35;42558;52.388;13.390;2022-07-24T14:53:52;27.77;36.18
57709;SHT35;42558;52.388;13.390;2022-07-24T14:56:19;27.98;36.69
57709;SHT35;42558;52.388;13.390;2022-07-24T14:58:52;28.17;36.00
57709;SHT35;42558;52.388;13.390;2022-07-24T15:01:19;27.31;35.72
57709;SHT35;42558;52.388;13.390;2022-07-24T15:03:46;27.32;36.28
57709;SHT35;42558;52.388;13.390;2022-07-24T15:06:13;27.58;36.33
57709;SHT35;42558;52.388;13.390;2022-07-24T15:08:40;27.96;35.83
57709;SHT35;42558;52.388;13.390;2022-07-24T15:11:07;28.00;35.97
57709;SHT35;42558;52.388;13.390;2022-07-24T15:13:34;28.37;35.50
57709;SHT35;42558;52.388;13.390;2022-07-24T15:16:04;28.80;35.23
57709;SHT35;42558;52.388;13.390;2022-07-24T15:18:31;28.97;35.12
57709;SHT35;42558;52.388;13.390;2022-07-24T15:20:59;28.91;34.43
57709;SHT35;42558;52.388;13.390;2022-07-24T15:23:26;29.11;35.12
57709;SHT35;42558;52.388;13.390;2022-07-24T15:25:53;28.71;35.33
57709;SHT35;42558;52.388;13.390;2022-07-24T15:28:20;29.10;35.71
57709;SHT35;42558;52.388;13.390;2022-07-24T15:30:47;29.23;34.76
57709;SHT35;42558;52.388;13.390;2022-07-24T15:33:14;29.32;34.38
57709;SHT35;42558;52.388;13.390;2022-07-24T15:35:41;29.12;34.80
57709;SHT35;42558;52.388;13.390;2022-07-24T15:38:08;29.11;35.28
57709;SHT35;42558;52.388;13.390;2022-07-24T15:40:35;29.38;34.39
57709;SHT35;42558;52.388;13.390;2022-07-24T15:43:02;29.46;35.09
57709;SHT35;42558;52.388;13.390;2022-07-24T15:45:29;29.29;35.37
57709;SHT35;42558;52.388;13.390;2022-07-24T15:47:56;29.58;35.07
57709;SHT35;42558;52.388;13.390;2022-07-24T15:50:23;29.27;34.67
57709;SHT35;42558;52.388;13.390;2022-07-24T15:52:50;28.28;34.92
57709;SHT35;42558;52.388;13.390;2022-07-24T15:55:16;27.77;36.01
57709;SHT35;42558;52.388;13.390;2022-07-24T15:57:47;28.17;35.88
57709;SHT35;42558;52.388;13.390;2022-07-24T16:00:15;28.87;35.89
57709;SHT35;42558;52.388;13.390;2022-07-24T16:02:43;29.13;33.99
57709;SHT35;42558;52.388;13.390;2022-07-24T16:05:10;29.32;34.91
57709;SHT35;42558;52.388;13.390;2022-07-24T16:07:37;29.81;35.08
57709;SHT35;42558;52.388;13.390;2022-07-24T16:10:04;29.84;32.85
57709;SHT35;42558;52.388;13.390;2022-07-24T16:12:32;29.43;33.91
57709;SHT35;42558;52.388;13.390;2022-07-24T16:14:58;29.68;33.37
57709;SHT35;42558;52.388;13.390;2022-07-24T16:17:25;30.02;33.28
57709;SHT35;42558;52.388;13.390;2022-07-24T16:19:52;29.95;32.99
57709;SHT35;42558;52.388;13.390;2022-07-24T16:22:19;29.50;34.26
57709;SHT35;42558;52.388;13.390;2022-07-24T16:24:47;28.97;33.64
57709;SHT35;42558;52.388;13.390;2022-07-24T16:27:14;28.54;34.84
57709;SHT35;42558;52.388;13.390;2022-07-24T16:29:40;28.19;34.51
57709;SHT35;42558;52.388;13.390;2022-07-24T16:32:07;28.08;35.51
57709;SHT35;42558;52.388;13.390;2022-07-24T16:34:34;28.16;35.15
57709;SHT35;42558;52.388;13.390;2022-07-24T16:37:01;28.11;34.68
57709;SHT35;42558;52.388;13.390;2022-07-24T16:39:28;28.25;35.13
57709;SHT35;42558;52.388;13.390;2022-07-24T16:42:10;28.17;35.48
57709;SHT35;42558;52.388;13.390;2022-07-24T16:44:41;27.77;35.43
57709;SHT35;42558;52.388;13.390;2022-07-24T16:47:08;27.82;35.14
57709;SHT35;42558;52.388;13.390;2022-07-24T16:49:34;27.85;36.02
57709;SHT35;42558;52.388;13.390;2022-07-24T16:52:02;28.07;37.20
57709;SHT35;42558;52.388;13.390;2022-07-24T16:54:30;28.12;35.24
57709;SHT35;42558;52.388;13.390;2022-07-24T16:56:56;27.64;35.95
57709;SHT35;42558;52.388;13.390;2022-07-24T16:59:23;27.65;36.59
57709;SHT35;42558;52.388;13.390;2022-07-24T17:01:51;27.81;36.57
57709;SHT35;42558;52.388;13.390;2022-07-24T17:04:18;27.67;35.18
57709;SHT35;42558;52.388;13.390;2022-07-24T17:06:46;27.65;35.98
57709;SHT35;42558;52.388;13.390;2022-07-24T17:09:13;27.65;36.09
57709;SHT35;42558;52.388;13.390;2022-07-24T17:11:42;27.89;37.07